createdAt,value
2022-09-17T00:01:31.416Z,100650.13
2022-09-17T00:04:04.817Z,100666.50
2022-09-17T00:06:35.318Z,100639.94
2022-09-17T00:09:03.284Z,100650.56
2022-09-17T00:11:35.517Z,100647.31
2022-09-17T00:14:06.057Z,100647.31
2022-09-17T00:16:38.071Z,100641.56
2022-09-17T00:19:07.151Z,100645.84
2022-09-17T00:21:34.914Z,100640.53
2022-09-17T00:24:06.350Z,100640.31
2022-09-17T00:26:36.755Z,100635.00
2022-09-17T00:29:06.156Z,100632.56
2022-09-17T00:31:34.933Z,100639.50
2022-09-17T00:34:04.708Z,100629.47
2022-09-17T00:36:35.532Z,100617.19
2022-09-17T00:39:04.397Z,100620.91
2022-09-17T00:41:34.235Z,100619.88
2022-09-17T00:44:43.200Z,100613.72
2022-09-17T00:47:19.234Z,100630.50
2022-09-17T00:49:48.658Z,100638.91
2022-09-17T00:52:19.649Z,100643.44
2022-09-17T00:54:53.842Z,100655.06
2022-09-17T00:57:22.540Z,100668.56
2022-09-17T00:59:52.227Z,100665.91
2022-09-17T01:02:21.654Z,100658.75
2022-09-17T01:04:50.001Z,100652.41
2022-09-17T01:07:32.068Z,100659.97
2022-09-17T01:10:07.885Z,100648.91
2022-09-17T01:12:51.287Z,100652.38
2022-09-17T01:15:30.363Z,100655.63
2022-09-17T01:18:12.033Z,100658.28
2022-09-17T01:21:08.533Z,100659.88
2022-09-17T01:24:20.339Z,100657.03
2022-09-17T01:27:14.819Z,100657.84
2022-09-17T01:30:00.785Z,100657.84
2022-09-17T01:32:37.101Z,100665.59
2022-09-17T01:35:12.312Z,100671.72
2022-09-17T01:37:50.282Z,100657.63
2022-09-17T01:40:25.780Z,100660.28
2022-09-17T01:43:00.450Z,100666.41
2022-09-17T01:45:35.419Z,100667.03
2022-09-17T01:48:12.528Z,100670.69
2022-09-17T01:50:44.449Z,100670.47
2022-09-17T01:53:14.730Z,100663.31
2022-09-17T01:55:47.176Z,100667.38
2022-09-17T01:58:20.824Z,100673.50
2022-09-17T02:00:56.026Z,100670.03
2022-09-17T02:03:31.046Z,100667.75
2022-09-17T02:06:03.233Z,100680.00
2022-09-17T02:08:37.573Z,100670.41
2022-09-17T02:11:09.998Z,100669.38
2022-09-17T02:13:43.669Z,100667.97
2022-09-17T02:16:14.891Z,100664.28
2022-09-17T02:18:51.162Z,100675.72
2022-09-17T02:21:25.719Z,100679.44
2022-09-17T02:24:04.398Z,100673.31
2022-09-17T02:26:33.921Z,100666.78
2022-09-17T02:29:07.977Z,100657.38
2022-09-17T02:31:35.829Z,100670.03
2022-09-17T02:34:06.690Z,100671.28
2022-09-17T02:36:35.626Z,100690.31
2022-09-17T02:39:05.611Z,100688.28
2022-09-17T02:41:45.378Z,100684.19
2022-09-17T02:44:22.932Z,100681.78
2022-09-17T02:47:19.518Z,100670.53
2022-09-17T02:50:16.966Z,100666.84
2022-09-17T02:52:59.479Z,100656.22
2022-09-17T02:55:33.955Z,100659.84
2022-09-17T02:58:13.097Z,100656.97
2022-09-17T03:00:41.604Z,100659.63
2022-09-17T03:03:16.090Z,100661.84
2022-09-17T03:05:45.628Z,100674.94
2022-09-17T03:08:16.002Z,100672.03
2022-09-17T03:10:43.714Z,100665.91
2022-09-17T03:13:11.491Z,100663.63
2022-09-17T03:15:39.666Z,100659.94
2022-09-17T03:18:07.428Z,100665.25
2022-09-17T03:20:35.670Z,100659.94
2022-09-17T03:23:04.905Z,100660.75
2022-09-17T03:25:32.649Z,100655.66
2022-09-17T03:28:00.824Z,100661.41
2022-09-17T03:30:28.616Z,100651.22
2022-09-17T03:32:56.753Z,100649.56
2022-09-17T03:35:25.167Z,100651.66
2022-09-17T03:37:52.872Z,100658.19
2022-09-17T03:40:22.461Z,100648.03
2022-09-17T03:42:50.209Z,100657.84
2022-09-17T03:45:18.421Z,100652.72
2022-09-17T03:47:46.145Z,100658.28
2022-09-17T03:50:13.934Z,100657.69
2022-09-17T03:52:42.118Z,100664.00
2022-09-17T03:55:11.047Z,100663.19
2022-09-17T03:57:40.692Z,100666.66
2022-09-17T04:00:09.360Z,100662.38
2022-09-17T04:02:37.243Z,100670.34
2022-09-17T04:05:06.352Z,100659.56
2022-09-17T04:07:34.109Z,100663.03
2022-09-17T04:10:03.018Z,100664.31
2022-09-17T04:12:30.716Z,100672.28
2022-09-17T04:14:59.838Z,100669.00
2022-09-17T04:17:28.702Z,100678.00
2022-09-17T04:19:56.410Z,100676.38
2022-09-17T04:22:24.233Z,100679.47
2022-09-17T04:24:52.424Z,100674.38
2022-09-17T04:27:20.645Z,100671.72
2022-09-17T04:29:48.377Z,100669.88
2022-09-17T04:32:17.483Z,100663.75
2022-09-17T04:34:45.628Z,100662.13
2022-09-17T04:37:13.359Z,100667.22
2022-09-17T04:39:41.101Z,100668.25
2022-09-17T04:42:09.890Z,100665.97
2022-09-17T04:44:37.614Z,100665.63
2022-09-17T04:47:05.660Z,100669.09
2022-09-17T04:49:34.776Z,100666.44
2022-09-17T04:52:02.914Z,100672.78
2022-09-17T04:54:31.198Z,100677.28
2022-09-17T04:57:00.705Z,100677.47
2022-09-17T04:59:28.934Z,100683.41
2022-09-17T05:01:56.707Z,100679.09
2022-09-17T05:04:24.791Z,100683.84
2022-09-17T05:06:54.770Z,100685.44
2022-09-17T05:09:22.511Z,100701.84
2022-09-17T05:11:50.249Z,100684.25
2022-09-17T05:14:18.465Z,100694.88
2022-09-17T05:16:46.866Z,100689.56
2022-09-17T05:19:15.063Z,100696.53
2022-09-17T05:21:43.044Z,100700.19
2022-09-17T05:24:12.350Z,100701.03
2022-09-17T05:26:40.904Z,100704.91
2022-09-17T05:29:08.760Z,100703.88
2022-09-17T05:31:37.166Z,100707.56
2022-09-17T05:34:05.243Z,100704.91
2022-09-17T05:36:32.957Z,100707.56
2022-09-17T05:39:01.866Z,100704.91
2022-09-17T05:41:30.964Z,100700.63
2022-09-17T05:43:59.173Z,100706.53
2022-09-17T05:46:26.989Z,100721.88
2022-09-17T05:48:56.768Z,100739.03
2022-09-17T05:51:25.205Z,100752.16
2022-09-17T05:53:55.346Z,100746.38
2022-09-17T05:56:24.464Z,100755.97
2022-09-17T05:58:56.678Z,100748.84
2022-09-17T06:01:25.048Z,100749.03
2022-09-17T06:03:53.783Z,100746.38
2022-09-17T06:06:21.622Z,100747.41
2022-09-17T06:08:49.838Z,100739.22
2022-09-17T06:11:17.576Z,100739.03
2022-09-17T06:13:45.945Z,100738.00
2022-09-17T06:16:15.839Z,100741.25
2022-09-17T06:18:43.578Z,100748.19
2022-09-17T06:21:11.841Z,100761.28
2022-09-17T06:23:40.007Z,100762.69
2022-09-17T06:26:07.861Z,100762.69
2022-09-17T06:28:41.215Z,100753.28
2022-09-17T06:31:11.029Z,100736.94
2022-09-17T06:33:40.996Z,100737.50
2022-09-17T06:36:13.624Z,100737.28
2022-09-17T06:38:42.875Z,100745.06
2022-09-17T06:41:10.657Z,100737.09
2022-09-17T06:43:38.522Z,100733.41
2022-09-17T06:46:09.474Z,100736.66
2022-09-17T06:48:38.379Z,100745.44
2022-09-17T06:51:09.446Z,100756.88
2022-09-17T06:53:38.114Z,100759.34
2022-09-17T06:56:07.361Z,100758.53
2022-09-17T06:58:37.391Z,100744.19
2022-09-17T07:01:05.890Z,100741.31
2022-09-17T07:03:34.608Z,100740.50
2022-09-17T07:06:03.080Z,100745.81
2022-09-17T07:08:34.411Z,100744.38
2022-09-17T07:11:02.349Z,100757.66
2022-09-17T07:13:30.313Z,100752.94
2022-09-17T07:15:59.844Z,100765.56
2022-09-17T07:18:28.288Z,100758.41
2022-09-17T07:20:57.136Z,100761.84
2022-09-17T07:23:25.542Z,100776.75
2022-09-17T07:25:55.451Z,100775.50
2022-09-17T07:28:23.955Z,100772.03
2022-09-17T07:30:52.482Z,100766.53
2022-09-17T07:33:23.370Z,100762.81
2022-09-17T07:35:55.022Z,100767.09
2022-09-17T07:38:23.365Z,100758.31
2022-09-17T07:40:58.885Z,100751.38
2022-09-17T07:43:27.463Z,100749.13
2022-09-17T07:45:55.758Z,100753.00
2022-09-17T07:48:24.197Z,100752.56
2022-09-17T07:50:51.924Z,100751.91
2022-09-17T07:53:20.091Z,100753.72
2022-09-17T07:55:52.960Z,100762.66
2022-09-17T07:58:23.009Z,100768.38
2022-09-17T08:00:51.069Z,100768.72
2022-09-17T08:03:18.832Z,100768.28
2022-09-17T08:05:48.352Z,100764.97
2022-09-17T08:08:20.908Z,100769.41
2022-09-17T08:10:49.087Z,100770.38
2022-09-17T08:13:16.823Z,100773.19
2022-09-17T08:15:45.991Z,100774.16
2022-09-17T08:18:16.663Z,100759.41
2022-09-17T08:20:44.378Z,100764.88
2022-09-17T08:23:12.685Z,100763.09
2022-09-17T08:25:40.401Z,100767.91
2022-09-17T08:28:08.260Z,100776.94
2022-09-17T08:30:36.386Z,100788.41
2022-09-17T08:33:05.482Z,100790.25
2022-09-17T08:35:33.620Z,100793.34
2022-09-17T08:38:01.712Z,100786.75
2022-09-17T08:40:29.798Z,100783.28
2022-09-17T08:43:02.461Z,100786.31
2022-09-17T08:45:31.390Z,100788.13
2022-09-17T08:48:05.067Z,100782.75
2022-09-17T08:50:39.479Z,100783.03
2022-09-17T08:53:29.296Z,100784.72
2022-09-17T08:56:02.792Z,100783.94
2022-09-17T08:58:42.254Z,100782.28
2022-09-17T09:01:34.390Z,100782.19
2022-09-17T09:04:33.577Z,100779.41
2022-09-17T09:07:08.045Z,100782.69
2022-09-17T09:09:39.084Z,100789.41
2022-09-17T09:12:12.031Z,100796.34
2022-09-17T09:14:47.514Z,100797.78
2022-09-17T09:17:18.487Z,100803.69
2022-09-17T09:19:47.709Z,100799.97
2022-09-17T09:22:33.356Z,100818.41
2022-09-17T09:25:09.426Z,100810.19
2022-09-17T09:27:45.077Z,100807.97
2022-09-17T09:30:14.952Z,100810.03
2022-09-17T09:32:54.658Z,100819.47
2022-09-17T09:35:24.820Z,100822.13
2022-09-17T09:38:00.571Z,100817.00
2022-09-17T09:40:37.091Z,100807.16
2022-09-17T09:43:15.980Z,100807.16
2022-09-17T09:46:08.785Z,100814.81
2022-09-17T09:48:45.553Z,100818.84
2022-09-17T09:51:27.161Z,100815.16
2022-09-17T09:54:09.856Z,100816.66
2022-09-17T09:56:53.127Z,100827.66
2022-09-17T09:59:21.327Z,100816.19
2022-09-17T10:01:49.428Z,100819.31
2022-09-17T10:04:21.764Z,100822.81
2022-09-17T10:06:52.456Z,100813.28
2022-09-17T10:09:23.774Z,100816.56
2022-09-17T10:12:02.402Z,100814.03
2022-09-17T10:14:32.768Z,100807.94
2022-09-17T10:17:29.195Z,100809.69
2022-09-17T10:20:24.495Z,100813.75
2022-09-17T10:22:52.392Z,100806.94
2022-09-17T10:25:29.987Z,100809.13
2022-09-17T10:28:00.591Z,100812.44
2022-09-17T10:30:28.570Z,100815.09
2022-09-17T10:33:13.851Z,100818.34
2022-09-17T10:35:41.564Z,100827.47
2022-09-17T10:38:29.186Z,100818.72
2022-09-17T10:41:11.528Z,100822.56
2022-09-17T10:43:39.510Z,100820.72
2022-09-17T10:46:11.530Z,100817.00
2022-09-17T10:48:43.104Z,100823.63
2022-09-17T10:51:12.222Z,100821.97
2022-09-17T10:54:07.324Z,100809.22
2022-09-17T10:56:38.730Z,100820.47
2022-09-17T10:59:24.564Z,100815.28
2022-09-17T11:02:09.292Z,100813.25
2022-09-17T11:04:49.760Z,100805.13
2022-09-17T11:07:34.140Z,100802.69
2022-09-17T11:10:10.867Z,100803.28
2022-09-17T11:12:58.254Z,100813.00
2022-09-17T11:15:37.013Z,100818.09
2022-09-17T11:18:34.075Z,100805.56
2022-09-17T11:21:17.552Z,100811.16
2022-09-17T11:24:15.556Z,100814.41
2022-09-17T11:26:47.439Z,100814.03
2022-09-17T11:29:37.697Z,100808.72
2022-09-17T11:32:16.369Z,100836.59
2022-09-17T11:34:48.672Z,100821.88
2022-09-17T11:37:23.709Z,100816.06
2022-09-17T11:39:57.674Z,100837.38
2022-09-17T11:42:30.609Z,100821.50
2022-09-17T11:45:03.801Z,100810.31
2022-09-17T11:47:35.780Z,100826.69
2022-09-17T11:50:12.298Z,100816.03
2022-09-17T11:52:46.954Z,100823.56
2022-09-17T11:55:21.937Z,100822.66
2022-09-17T11:57:56.284Z,100807.25
2022-09-17T12:00:25.542Z,100796.81
2022-09-17T12:02:58.892Z,100796.47
2022-09-17T12:05:30.295Z,100790.28
2022-09-17T12:08:10.227Z,100794.69
2022-09-17T12:10:46.967Z,100792.72
2022-09-17T12:13:23.287Z,100793.66
2022-09-17T12:15:57.310Z,100790.31
2022-09-17T12:18:39.928Z,100781.97
2022-09-17T12:21:10.751Z,100775.25
2022-09-17T12:23:44.250Z,100780.47
2022-09-17T12:26:25.983Z,100788.97
2022-09-17T12:29:02.102Z,100780.47
2022-09-17T12:31:37.543Z,100772.38
2022-09-17T12:34:11.790Z,100783.97
2022-09-17T12:36:51.274Z,100780.72
2022-09-17T12:40:03.434Z,100785.00
2022-09-17T12:42:52.633Z,100781.03
2022-09-17T12:45:36.123Z,100779.91
2022-09-17T12:48:43.535Z,100782.78
2022-09-17T12:51:21.111Z,100778.72
2022-09-17T12:54:01.446Z,100783.25
2022-09-17T12:56:44.162Z,100798.69
2022-09-17T12:59:15.839Z,100791.63
2022-09-17T13:01:53.515Z,100790.44
2022-09-17T13:05:07.289Z,100782.69
2022-09-17T13:08:06.933Z,100778.41
2022-09-17T13:11:08.133Z,100776.78
2022-09-17T13:13:43.231Z,100786.75
2022-09-17T13:16:20.074Z,100777.56
2022-09-17T13:19:16.484Z,100757.97
2022-09-17T13:21:54.463Z,100762.81
2022-09-17T13:24:25.624Z,100749.25
2022-09-17T13:26:55.019Z,100741.94
2022-09-17T13:29:59.514Z,100755.16
2022-09-17T13:32:47.109Z,100748.88
2022-09-17T13:35:49.314Z,100758.97
2022-09-17T13:38:23.693Z,100761.06
2022-09-17T13:40:52.524Z,100763.13
2022-09-17T13:43:26.928Z,100747.94
2022-09-17T13:46:14.576Z,100752.03
2022-09-17T13:48:50.286Z,100755.25
2022-09-17T13:51:53.539Z,100751.53
2022-09-17T13:54:25.698Z,100759.22
2022-09-17T13:57:09.759Z,100767.34
2022-09-17T13:59:38.993Z,100760.88
2022-09-17T14:02:36.589Z,100763.41
2022-09-17T14:05:30.803Z,100746.47
2022-09-17T14:08:30.837Z,100759.47
2022-09-17T14:11:03.060Z,100760.84
2022-09-17T14:13:45.042Z,100758.09
2022-09-17T14:16:47.364Z,100767.59
2022-09-17T14:19:51.007Z,100762.81
2022-09-17T14:22:26.046Z,100769.44
2022-09-17T14:24:55.846Z,100780.25
2022-09-17T14:27:47.736Z,100768.75
2022-09-17T14:30:19.909Z,100764.22
2022-09-17T14:33:00.107Z,100760.59
2022-09-17T14:35:33.203Z,100772.69
2022-09-17T14:38:04.085Z,100783.13
2022-09-17T14:40:35.740Z,100797.19
2022-09-17T14:43:05.153Z,100804.03
2022-09-17T14:45:34.734Z,100811.22
2022-09-17T14:48:37.492Z,100815.66
2022-09-17T14:51:30.676Z,100816.34
2022-09-17T14:54:19.835Z,100817.72
2022-09-17T14:56:56.466Z,100817.03
2022-09-17T14:59:31.496Z,100807.72
2022-09-17T15:04:48.153Z,100807.25
2022-09-17T15:07:16.524Z,100812.47
2022-09-17T15:09:44.270Z,100803.06
2022-09-17T15:12:18.794Z,100804.34
2022-09-17T15:14:49.515Z,100801.91
2022-09-17T15:17:20.547Z,100804.81
2022-09-17T15:19:51.500Z,100798.44
2022-09-17T15:22:24.047Z,100800.03
2022-09-17T15:24:56.973Z,100792.03
2022-09-17T15:27:30.518Z,100800.28
2022-09-17T15:30:04.197Z,100804.81
2022-09-17T15:32:33.950Z,100801.53
2022-09-17T15:35:19.672Z,100801.53
2022-09-17T15:38:18.509Z,100798.75
2022-09-17T15:40:41.366Z,100807.00
2022-09-17T15:43:18.525Z,100807.22
2022-09-17T15:45:48.330Z,100801.53
2022-09-17T15:48:26.021Z,100806.63
2022-09-17T15:50:56.442Z,100810.56
2022-09-17T15:53:27.095Z,100815.91
2022-09-17T15:56:07.733Z,100825.75
2022-09-17T15:58:52.595Z,100833.75
2022-09-17T16:01:56.760Z,100819.00
2022-09-17T16:04:32.066Z,100813.44
2022-09-17T16:07:30.358Z,100831.38
2022-09-17T16:09:59.981Z,100841.81
2022-09-17T16:12:30.371Z,100847.94
2022-09-17T16:15:00.822Z,100856.84
2022-09-17T16:17:36.229Z,100855.47
2022-09-17T16:20:10.989Z,100852.34
2022-09-17T16:22:39.185Z,100850.72
2022-09-17T16:25:07.806Z,100853.38
2022-09-17T16:27:50.866Z,100851.38
2022-09-17T16:30:21.665Z,100847.47
2022-09-17T16:32:50.149Z,100850.94
2022-09-17T16:35:21.281Z,100848.06
2022-09-17T16:37:50.692Z,100840.50
2022-09-17T16:40:19.036Z,100844.34
2022-09-17T16:42:48.354Z,100837.97
2022-09-17T16:45:17.253Z,100838.44
2022-09-17T16:47:45.083Z,100836.94
2022-09-17T16:50:16.480Z,100841.66
2022-09-17T16:52:46.811Z,100836.81
2022-09-17T16:55:17.375Z,100845.38
2022-09-17T16:57:45.226Z,100842.16
2022-09-17T17:00:16.975Z,100840.88
2022-09-17T17:02:45.400Z,100844.81
2022-09-17T17:05:13.200Z,100840.72
2022-09-17T17:07:41.353Z,100840.97
2022-09-17T17:10:11.934Z,100842.59
2022-09-17T17:12:39.673Z,100858.81
2022-09-17T17:15:09.615Z,100849.63
2022-09-17T17:17:37.906Z,100849.25
2022-09-17T17:20:08.395Z,100846.84
2022-09-17T17:22:37.502Z,100852.97
2022-09-17T17:25:06.114Z,100850.31
2022-09-17T17:27:36.317Z,100857.50
2022-09-17T17:30:09.255Z,100855.88
2022-09-17T17:32:38.613Z,100857.59
2022-09-17T17:35:07.829Z,100863.94
2022-09-17T17:37:35.572Z,100871.94
2022-09-17T17:40:08.365Z,100868.91
2022-09-17T17:42:39.955Z,100867.28
2022-09-17T17:45:09.208Z,100868.31
2022-09-17T17:47:37.963Z,100878.16
2022-09-17T17:50:06.641Z,100873.88
2022-09-17T17:52:34.988Z,100879.63
2022-09-17T17:55:02.850Z,100864.91
2022-09-17T17:57:30.760Z,100874.16
2022-09-17T18:00:00.749Z,100877.63
2022-09-17T18:02:29.180Z,100866.03
2022-09-17T18:05:00.782Z,100875.44
2022-09-17T18:07:32.086Z,100879.56
2022-09-17T18:10:00.996Z,100880.47
2022-09-17T18:12:29.344Z,100882.53
2022-09-17T18:14:58.862Z,100881.28
2022-09-17T18:17:32.041Z,100887.03
2022-09-17T18:20:00.042Z,100889.94
2022-09-17T18:22:28.426Z,100895.69
2022-09-17T18:24:56.199Z,100900.22
2022-09-17T18:27:24.370Z,100886.31
2022-09-17T18:29:52.117Z,100904.97
2022-09-17T18:32:19.861Z,100903.09
2022-09-17T18:34:51.165Z,100907.19
2022-09-17T18:37:19.863Z,100910.88
2022-09-17T18:40:04.909Z,100913.53
2022-09-17T18:42:33.529Z,100921.53
2022-09-17T18:45:01.757Z,100934.84
2022-09-17T18:47:29.856Z,100927.88
2022-09-17T18:49:59.765Z,100927.88
2022-09-17T18:52:28.290Z,100927.31
2022-09-17T18:54:56.437Z,100932.63
2022-09-17T18:57:24.162Z,100925.06
2022-09-17T18:59:52.569Z,100932.47
2022-09-17T19:02:20.960Z,100937.81
2022-09-17T19:04:48.993Z,100930.25
2022-09-17T19:07:18.592Z,100927.56
2022-09-17T19:09:47.956Z,100938.47
2022-09-17T19:12:15.772Z,100938.66
2022-09-17T19:14:44.170Z,100932.53
2022-09-17T19:17:12.326Z,100940.31
2022-09-17T19:19:40.103Z,100923.28
2022-09-17T19:22:08.360Z,100928.63
2022-09-17T19:24:38.828Z,100928.38
2022-09-17T19:27:07.586Z,100921.22
2022-09-17T19:29:35.844Z,100917.97
2022-09-17T19:32:04.044Z,100919.81
2022-09-17T19:34:31.924Z,100920.41
2022-09-17T19:36:59.800Z,100924.91
2022-09-17T19:39:28.101Z,100924.50
2022-09-17T19:41:57.216Z,100926.13
2022-09-17T19:44:25.205Z,100932.25
2022-09-17T19:46:53.716Z,100934.09
2022-09-17T19:49:21.553Z,100943.94
2022-09-17T19:51:49.759Z,100934.34
2022-09-17T19:54:17.481Z,100935.16
2022-09-17T19:56:45.416Z,100932.47
2022-09-17T19:59:15.235Z,100932.25
2022-09-17T20:01:49.244Z,100927.16
2022-09-17T20:04:20.429Z,100920.78
2022-09-17T20:06:48.144Z,100923.69
2022-09-17T20:09:15.909Z,100921.00
2022-09-17T20:11:44.034Z,100925.50
2022-09-17T20:14:12.709Z,100919.59
2022-09-17T20:16:43.907Z,100915.31
2022-09-17T20:19:15.370Z,100922.03
2022-09-17T20:21:43.191Z,100918.78
2022-09-17T20:24:11.480Z,100919.59
2022-09-17T20:26:39.246Z,100928.38
2022-09-17T20:29:07.025Z,100929.44
2022-09-17T20:31:35.033Z,100925.72
2022-09-17T20:36:36.093Z,100926.78
2022-09-17T20:39:18.188Z,100921.44
2022-09-17T20:41:47.831Z,100933.13
2022-09-17T20:44:15.652Z,100939.28
2022-09-17T20:46:43.463Z,100946.66
2022-09-17T20:49:12.910Z,100945.03
2022-09-17T20:51:40.638Z,100939.69
2022-09-17T20:54:08.658Z,100938.31
2022-09-17T20:56:37.372Z,100941.78
2022-09-17T20:59:15.097Z,100946.06
2022-09-17T21:01:45.020Z,100950.81
2022-09-17T21:04:16.807Z,100947.91
2022-09-17T21:06:45.533Z,100946.06
2022-09-17T21:09:16.747Z,100946.88
2022-09-17T21:11:45.204Z,100950.34
2022-09-17T21:14:15.255Z,100945.63
2022-09-17T21:16:43.074Z,100948.31
2022-09-17T21:19:16.544Z,100940.91
2022-09-17T21:21:44.842Z,100950.75
2022-09-17T21:24:12.860Z,100950.31
2022-09-17T21:26:40.995Z,100943.13
2022-09-17T21:29:08.921Z,100940.47
2022-09-17T21:31:38.168Z,100945.78
2022-09-17T21:34:08.345Z,100943.13
2022-09-17T21:36:39.336Z,100943.94
2022-09-17T21:39:10.902Z,100944.16
2022-09-17T21:41:42.547Z,100945.41
2022-09-17T21:44:11.252Z,100939.50
2022-09-17T21:46:41.084Z,100940.50
2022-09-17T21:49:09.320Z,100935.69
2022-09-17T21:51:39.891Z,100944.88
2022-09-17T21:54:10.016Z,100943.66
2022-09-17T21:56:38.576Z,100947.38
2022-09-17T21:59:08.691Z,100939.84
2022-09-17T22:01:40.280Z,100952.13
2022-09-17T22:04:09.402Z,100944.34
2022-09-17T22:06:39.079Z,100939.84
2022-09-17T22:09:08.985Z,100941.88
2022-09-17T22:11:38.368Z,100945.81
2022-09-17T22:14:09.484Z,100945.00
2022-09-17T22:16:40.025Z,100950.53
2022-09-17T22:19:09.247Z,100957.06
2022-09-17T22:21:40.766Z,100953.81
2022-09-17T22:24:09.169Z,100946.25
2022-09-17T22:26:40.164Z,100959.34
2022-09-17T22:29:09.447Z,100947.88
2022-09-17T22:31:37.491Z,100949.97
2022-09-17T22:34:09.102Z,100950.56
2022-09-17T22:36:38.684Z,100947.88
2022-09-17T22:39:07.087Z,100944.84
2022-09-17T22:41:37.172Z,100940.31
2022-09-17T22:44:06.307Z,100937.06
2022-09-17T22:46:35.980Z,100941.97
2022-09-17T22:49:04.047Z,100936.66
2022-09-17T22:51:33.193Z,100928.66
2022-09-17T22:54:02.906Z,100930.28
2022-09-17T22:56:31.608Z,100928.06
2022-09-17T22:59:00.260Z,100919.47
2022-09-17T23:01:30.002Z,100919.69
2022-09-17T23:03:59.602Z,100921.53
2022-09-17T23:06:29.552Z,100910.88
2022-09-17T23:08:57.901Z,100914.59
2022-09-17T23:11:28.840Z,100904.38
2022-09-17T23:13:58.836Z,100907.63
2022-09-17T23:16:27.113Z,100900.69
2022-09-17T23:18:55.292Z,100906.00
2022-09-17T23:21:23.294Z,100909.25
2022-09-17T23:23:53.459Z,100898.59
2022-09-17T23:26:24.815Z,100899.88
2022-09-17T23:28:54.540Z,100899.06
2022-09-17T23:31:24.482Z,100908.28
2022-09-17T23:33:53.340Z,100902.38
2022-09-17T23:36:22.778Z,100897.06
2022-09-17T23:38:52.125Z,100889.50
2022-09-17T23:41:22.155Z,100889.72
2022-09-17T23:43:52.526Z,100897.09
2022-09-17T23:46:23.788Z,100890.13
2022-09-17T23:48:53.769Z,100881.75
2022-09-17T23:51:22.341Z,100886.06
2022-09-17T23:53:50.400Z,100856.31
2022-09-17T23:56:21.681Z,100885.69
2022-09-17T23:58:50.499Z,100885.06
